sensor_id;sensor_type;location;lat;lon;timestamp;P1;durP1;ratioP1;P2;durP2;ratioP2
17618;SDS011;8928;51.678;6.074;2023-10-08T00:00:00;11.95;;;5.38;;
17618;SDS011;8928;51.678;6.074;2023-10-08T00:03:08;17.37;;;5.60;;
17618;SDS011;8928;51.678;6.074;2023-10-08T00:05:56;14.13;;;5.30;;
17618;SDS011;8928;51.678;6.074;2023-10-08T00:08:43;16.00;;;5.47;;
17618;SDS011;8928;51.678;6.074;2023-10-08T00:11:31;13.00;;;4.87;;
17618;SDS011;8928;51.678;6.074;2023-10-08T00:14:20;16.37;;;5.33;;
17618;SDS011;8928;51.678;6.074;2023-10-08T00:17:07;13.90;;;5.60;;
17618;SDS011;8928;51.678;6.074;2023-10-08T00:19:56;14.40;;;5.13;;
17618;SDS011;8928;51.678;6.074;2023-10-08T00:22:46;12.30;;;5.20;;
17618;SDS011;8928;51.678;6.074;2023-10-08T00:25:33;12.17;;;5.10;;
17618;SDS011;8928;51.678;6.074;2023-10-08T00:28:27;14.90;;;5.20;;
17618;SDS011;8928;51.678;6.074;2023-10-08T00:31:14;11.80;;;5.40;;
17618;SDS011;8928;51.678;6.074;2023-10-08T00:34:02;14.53;;;5.50;;
17618;SDS011;8928;51.678;6.074;2023-10-08T00:36:50;18.23;;;5.63;;
17618;SDS011;8928;51.678;6.074;2023-10-08T00:39:38;15.83;;;5.40;;
17618;SDS011;8928;51.678;6.074;2023-10-08T00:42:25;17.70;;;5.40;;
17618;SDS011;8928;51.678;6.074;2023-10-08T00:45:15;17.60;;;5.93;;
17618;SDS011;8928;51.678;6.074;2023-10-08T00:48:04;14.47;;;5.13;;
17618;SDS011;8928;51.678;6.074;2023-10-08T00:50:52;16.13;;;5.43;;
17618;SDS011;8928;51.678;6.074;2023-10-08T00:53:55;19.93;;;5.80;;
17618;SDS011;8928;51.678;6.074;2023-10-08T00:56:45;14.00;;;5.80;;
17618;SDS011;8928;51.678;6.074;2023-10-08T00:59:42;13.80;;;5.43;;
17618;SDS011;8928;51.678;6.074;2023-10-08T01:02:36;18.53;;;5.63;;
17618;SDS011;8928;51.678;6.074;2023-10-08T01:05:31;20.77;;;5.70;;
17618;SDS011;8928;51.678;6.074;2023-10-08T01:08:32;14.43;;;5.53;;
17618;SDS011;8928;51.678;6.074;2023-10-08T01:11:22;15.13;;;5.63;;
17618;SDS011;8928;51.678;6.074;2023-10-08T01:14:18;14.03;;;5.50;;
17618;SDS011;8928;51.678;6.074;2023-10-08T01:17:17;11.87;;;4.87;;
17618;SDS011;8928;51.678;6.074;2023-10-08T01:20:06;17.37;;;5.70;;
17618;SDS011;8928;51.678;6.074;2023-10-08T01:23:08;15.70;;;5.43;;
17618;SDS011;8928;51.678;6.074;2023-10-08T01:25:58;15.37;;;5.50;;
17618;SDS011;8928;51.678;6.074;2023-10-08T01:28:55;14.97;;;5.50;;
17618;SDS011;8928;51.678;6.074;2023-10-08T01:31:43;17.43;;;5.60;;
17618;SDS011;8928;51.678;6.074;2023-10-08T01:34:30;12.77;;;4.97;;
17618;SDS011;8928;51.678;6.074;2023-10-08T01:37:21;11.53;;;5.10;;
17618;SDS011;8928;51.678;6.074;2023-10-08T01:40:10;12.70;;;5.27;;
17618;SDS011;8928;51.678;6.074;2023-10-08T01:42:58;12.07;;;5.03;;
17618;SDS011;8928;51.678;6.074;2023-10-08T01:45:46;18.53;;;5.87;;
17618;SDS011;8928;51.678;6.074;2023-10-08T01:48:35;18.57;;;5.43;;
17618;SDS011;8928;51.678;6.074;2023-10-08T01:51:23;13.87;;;5.70;;
17618;SDS011;8928;51.678;6.074;2023-10-08T01:54:14;15.63;;;5.87;;
17618;SDS011;8928;51.678;6.074;2023-10-08T01:57:04;15.33;;;5.37;;
17618;SDS011;8928;51.678;6.074;2023-10-08T01:59:54;14.17;;;5.20;;
17618;SDS011;8928;51.678;6.074;2023-10-08T02:02:41;13.53;;;5.20;;
17618;SDS011;8928;51.678;6.074;2023-10-08T02:05:29;14.63;;;5.37;;
17618;SDS011;8928;51.678;6.074;2023-10-08T02:08:16;18.53;;;5.83;;
17618;SDS011;8928;51.678;6.074;2023-10-08T02:11:03;18.30;;;6.10;;
17618;SDS011;8928;51.678;6.074;2023-10-08T02:13:52;18.17;;;5.87;;
17618;SDS011;8928;51.678;6.074;2023-10-08T02:16:39;17.60;;;5.83;;
17618;SDS011;8928;51.678;6.074;2023-10-08T02:19:27;15.87;;;5.57;;
17618;SDS011;8928;51.678;6.074;2023-10-08T02:22:14;15.47;;;5.80;;
17618;SDS011;8928;51.678;6.074;2023-10-08T02:25:02;17.97;;;5.77;;
17618;SDS011;8928;51.678;6.074;2023-10-08T02:27:49;19.07;;;5.57;;
17618;SDS011;8928;51.678;6.074;2023-10-08T02:30:38;16.87;;;5.70;;
17618;SDS011;8928;51.678;6.074;2023-10-08T02:33:26;15.73;;;5.63;;
17618;SDS011;8928;51.678;6.074;2023-10-08T02:36:13;17.13;;;6.03;;
17618;SDS011;8928;51.678;6.074;2023-10-08T02:39:00;15.07;;;5.30;;
17618;SDS011;8928;51.678;6.074;2023-10-08T02:41:51;23.00;;;6.37;;
17618;SDS011;8928;51.678;6.074;2023-10-08T02:44:42;15.27;;;5.50;;
17618;SDS011;8928;51.678;6.074;2023-10-08T02:47:30;19.17;;;5.70;;
17618;SDS011;8928;51.678;6.074;2023-10-08T02:50:18;17.27;;;5.50;;
17618;SDS011;8928;51.678;6.074;2023-10-08T02:53:07;15.50;;;5.93;;
17618;SDS011;8928;51.678;6.074;2023-10-08T02:55:56;15.00;;;5.87;;
17618;SDS011;8928;51.678;6.074;2023-10-08T02:58:43;13.07;;;5.27;;
17618;SDS011;8928;51.678;6.074;2023-10-08T03:01:32;17.33;;;5.47;;
17618;SDS011;8928;51.678;6.074;2023-10-08T03:04:20;17.63;;;5.83;;
17618;SDS011;8928;51.678;6.074;2023-10-08T03:07:08;15.47;;;5.63;;
17618;SDS011;8928;51.678;6.074;2023-10-08T03:10:07;22.00;;;5.57;;
17618;SDS011;8928;51.678;6.074;2023-10-08T03:13:03;19.60;;;5.87;;
17618;SDS011;8928;51.678;6.074;2023-10-08T03:15:51;18.93;;;5.70;;
17618;SDS011;8928;51.678;6.074;2023-10-08T03:18:53;15.93;;;5.90;;
17618;SDS011;8928;51.678;6.074;2023-10-08T03:21:43;13.93;;;5.63;;
17618;SDS011;8928;51.678;6.074;2023-10-08T03:24:36;22.50;;;5.47;;
17618;SDS011;8928;51.678;6.074;2023-10-08T03:27:27;23.67;;;5.93;;
17618;SDS011;8928;51.678;6.074;2023-10-08T03:30:14;20.10;;;5.83;;
17618;SDS011;8928;51.678;6.074;2023-10-08T03:33:01;16.27;;;5.67;;
17618;SDS011;8928;51.678;6.074;2023-10-08T03:35:55;21.53;;;5.90;;
17618;SDS011;8928;51.678;6.074;2023-10-08T03:38:44;15.80;;;5.23;;
17618;SDS011;8928;51.678;6.074;2023-10-08T03:41:35;16.83;;;5.63;;
17618;SDS011;8928;51.678;6.074;2023-10-08T03:44:25;17.97;;;5.47;;
17618;SDS011;8928;51.678;6.074;2023-10-08T03:47:15;17.93;;;5.83;;
17618;SDS011;8928;51.678;6.074;2023-10-08T03:50:04;20.90;;;6.07;;
17618;SDS011;8928;51.678;6.074;2023-10-08T03:52:55;15.73;;;5.90;;
17618;SDS011;8928;51.678;6.074;2023-10-08T03:55:45;18.80;;;5.97;;
17618;SDS011;8928;51.678;6.074;2023-10-08T03:58:34;18.97;;;6.60;;
17618;SDS011;8928;51.678;6.074;2023-10-08T04:01:26;22.17;;;6.20;;
17618;SDS011;8928;51.678;6.074;2023-10-08T04:04:17;17.93;;;6.37;;
17618;SDS011;8928;51.678;6.074;2023-10-08T04:07:04;19.87;;;6.50;;
17618;SDS011;8928;51.678;6.074;2023-10-08T04:10:05;24.30;;;6.60;;
17618;SDS011;8928;51.678;6.074;2023-10-08T04:13:25;17.80;;;6.20;;
17618;SDS011;8928;51.678;6.074;2023-10-08T04:16:14;20.10;;;6.73;;
17618;SDS011;8928;51.678;6.074;2023-10-08T04:19:04;16.77;;;6.20;;
17618;SDS011;8928;51.678;6.074;2023-10-08T04:21:51;22.97;;;6.77;;
17618;SDS011;8928;51.678;6.074;2023-10-08T04:24:40;19.30;;;6.80;;
17618;SDS011;8928;51.678;6.074;2023-10-08T04:27:29;20.60;;;6.97;;
17618;SDS011;8928;51.678;6.074;2023-10-08T04:30:20;16.30;;;6.37;;
17618;SDS011;8928;51.678;6.074;2023-10-08T04:33:08;18.17;;;6.63;;
17618;SDS011;8928;51.678;6.074;2023-10-08T04:35:57;16.00;;;6.70;;
17618;SDS011;8928;51.678;6.074;2023-10-08T04:38:47;22.40;;;7.37;;
17618;SDS011;8928;51.678;6.074;2023-10-08T04:41:39;21.17;;;6.40;;
17618;SDS011;8928;51.678;6.074;2023-10-08T04:44:28;21.37;;;7.10;;
17618;SDS011;8928;51.678;6.074;2023-10-08T04:47:18;20.57;;;6.57;;
17618;SDS011;8928;51.678;6.074;2023-10-08T04:50:16;21.03;;;7.00;;
17618;SDS011;8928;51.678;6.074;2023-10-08T04:53:06;18.13;;;7.03;;
17618;SDS011;8928;51.678;6.074;2023-10-08T04:55:54;22.30;;;7.10;;
17618;SDS011;8928;51.678;6.074;2023-10-08T04:58:42;19.03;;;6.47;;
17618;SDS011;8928;51.678;6.074;2023-10-08T05:01:31;26.43;;;6.43;;
17618;SDS011;8928;51.678;6.074;2023-10-08T05:04:34;20.07;;;6.50;;
17618;SDS011;8928;51.678;6.074;2023-10-08T05:07:32;23.00;;;6.77;;
17618;SDS011;8928;51.678;6.074;2023-10-08T05:10:42;23.00;;;6.60;;
17618;SDS011;8928;51.678;6.074;2023-10-08T05:13:39;20.10;;;6.63;;
17618;SDS011;8928;51.678;6.074;2023-10-08T05:16:40;23.33;;;6.50;;
17618;SDS011;8928;51.678;6.074;2023-10-08T05:19:35;20.17;;;6.70;;
17618;SDS011;8928;51.678;6.074;2023-10-08T05:22:41;19.30;;;7.33;;
17618;SDS011;8928;51.678;6.074;2023-10-08T05:25:32;20.50;;;7.07;;
17618;SDS011;8928;51.678;6.074;2023-10-08T05:28:26;25.53;;;6.90;;
17618;SDS011;8928;51.678;6.074;2023-10-08T05:31:14;17.70;;;7.03;;
17618;SDS011;8928;51.678;6.074;2023-10-08T05:34:22;23.17;;;6.97;;
17618;SDS011;8928;51.678;6.074;2023-10-08T05:37:18;21.40;;;7.23;;
17618;SDS011;8928;51.678;6.074;2023-10-08T05:40:27;22.33;;;7.20;;
17618;SDS011;8928;51.678;6.074;2023-10-08T05:43:39;22.43;;;6.87;;
17618;SDS011;8928;51.678;6.074;2023-10-08T05:47:01;24.47;;;6.67;;
17618;SDS011;8928;51.678;6.074;2023-10-08T05:50:14;20.90;;;7.40;;
17618;SDS011;8928;51.678;6.074;2023-10-08T05:53:24;20.87;;;7.37;;
17618;SDS011;8928;51.678;6.074;2023-10-08T05:56:23;23.63;;;7.20;;
17618;SDS011;8928;51.678;6.074;2023-10-08T05:59:27;24.30;;;7.70;;
17618;SDS011;8928;51.678;6.074;2023-10-08T06:02:24;21.63;;;7.53;;
17618;SDS011;8928;51.678;6.074;2023-10-08T06:05:14;21.93;;;7.67;;
17618;SDS011;8928;51.678;6.074;2023-10-08T06:08:09;18.53;;;7.47;;
17618;SDS011;8928;51.678;6.074;2023-10-08T06:11:01;22.77;;;7.80;;
17618;SDS011;8928;51.678;6.074;2023-10-08T06:14:04;21.17;;;7.87;;
17618;SDS011;8928;51.678;6.074;2023-10-08T06:17:01;22.40;;;7.93;;
17618;SDS011;8928;51.678;6.074;2023-10-08T06:20:09;18.90;;;6.90;;
17618;SDS011;8928;51.678;6.074;2023-10-08T06:23:02;20.70;;;7.03;;
17618;SDS011;8928;51.678;6.074;2023-10-08T06:25:53;17.67;;;6.93;;
17618;SDS011;8928;51.678;6.074;2023-10-08T06:28:43;22.53;;;7.50;;
17618;SDS011;8928;51.678;6.074;2023-10-08T06:31:32;21.93;;;7.47;;
17618;SDS011;8928;51.678;6.074;2023-10-08T06:34:21;24.43;;;7.80;;
17618;SDS011;8928;51.678;6.074;2023-10-08T06:37:13;25.37;;;8.00;;
17618;SDS011;8928;51.678;6.074;2023-10-08T06:40:01;23.93;;;8.30;;
17618;SDS011;8928;51.678;6.074;2023-10-08T06:42:51;26.13;;;8.67;;
17618;SDS011;8928;51.678;6.074;2023-10-08T06:45:40;27.87;;;8.60;;
17618;SDS011;8928;51.678;6.074;2023-10-08T06:48:29;24.70;;;8.10;;
17618;SDS011;8928;51.678;6.074;2023-10-08T06:51:16;22.87;;;8.30;;
17618;SDS011;8928;51.678;6.074;2023-10-08T06:54:04;22.73;;;8.70;;
17618;SDS011;8928;51.678;6.074;2023-10-08T06:56:55;29.40;;;8.83;;
17618;SDS011;8928;51.678;6.074;2023-10-08T06:59:42;36.10;;;8.10;;
17618;SDS011;8928;51.678;6.074;2023-10-08T07:02:31;25.30;;;7.43;;
17618;SDS011;8928;51.678;6.074;2023-10-08T07:05:21;33.97;;;7.30;;
17618;SDS011;8928;51.678;6.074;2023-10-08T07:08:08;25.30;;;6.73;;
17618;SDS011;8928;51.678;6.074;2023-10-08T07:10:59;28.57;;;7.77;;
17618;SDS011;8928;51.678;6.074;2023-10-08T07:13:50;37.00;;;7.53;;
17618;SDS011;8928;51.678;6.074;2023-10-08T07:16:37;25.37;;;7.33;;
17618;SDS011;8928;51.678;6.074;2023-10-08T07:19:26;31.47;;;7.47;;
17618;SDS011;8928;51.678;6.074;2023-10-08T07:22:23;26.10;;;7.33;;
17618;SDS011;8928;51.678;6.074;2023-10-08T07:25:14;24.53;;;7.00;;
17618;SDS011;8928;51.678;6.074;2023-10-08T07:28:06;27.50;;;7.57;;
17618;SDS011;8928;51.678;6.074;2023-10-08T07:30:57;27.03;;;7.30;;
17618;SDS011;8928;51.678;6.074;2023-10-08T07:33:45;26.50;;;6.90;;
17618;SDS011;8928;51.678;6.074;2023-10-08T07:36:41;23.60;;;6.83;;
17618;SDS011;8928;51.678;6.074;2023-10-08T07:39:31;23.73;;;7.00;;
17618;SDS011;8928;51.678;6.074;2023-10-08T07:42:21;19.67;;;6.90;;
17618;SDS011;8928;51.678;6.074;2023-10-08T07:45:09;21.60;;;6.97;;
17618;SDS011;8928;51.678;6.074;2023-10-08T07:48:02;19.10;;;5.77;;
17618;SDS011;8928;51.678;6.074;2023-10-08T07:50:55;16.20;;;5.97;;
17618;SDS011;8928;51.678;6.074;2023-10-08T07:53:43;20.27;;;5.50;;
17618;SDS011;8928;51.678;6.074;2023-10-08T07:56:32;18.53;;;5.47;;
17618;SDS011;8928;51.678;6.074;2023-10-08T07:59:19;14.00;;;5.03;;
17618;SDS011;8928;51.678;6.074;2023-10-08T08:02:08;12.73;;;4.50;;
17618;SDS011;8928;51.678;6.074;2023-10-08T08:04:56;13.97;;;4.30;;
17618;SDS011;8928;51.678;6.074;2023-10-08T08:07:43;16.93;;;4.63;;
17618;SDS011;8928;51.678;6.074;2023-10-08T08:10:32;15.10;;;3.90;;
17618;SDS011;8928;51.678;6.074;2023-10-08T08:13:23;15.07;;;3.23;;
17618;SDS011;8928;51.678;6.074;2023-10-08T08:16:13;15.57;;;3.57;;
17618;SDS011;8928;51.678;6.074;2023-10-08T08:19:04;14.00;;;3.40;;
17618;SDS011;8928;51.678;6.074;2023-10-08T08:21:51;14.73;;;3.27;;
17618;SDS011;8928;51.678;6.074;2023-10-08T08:24:38;10.90;;;3.23;;
17618;SDS011;8928;51.678;6.074;2023-10-08T08:27:26;12.80;;;2.90;;
17618;SDS011;8928;51.678;6.074;2023-10-08T08:30:18;11.57;;;3.00;;
17618;SDS011;8928;51.678;6.074;2023-10-08T08:33:05;13.40;;;2.70;;
17618;SDS011;8928;51.678;6.074;2023-10-08T08:35:58;8.57;;;2.50;;
17618;SDS011;8928;51.678;6.074;2023-10-08T08:38:46;10.50;;;2.20;;
17618;SDS011;8928;51.678;6.074;2023-10-08T08:41:36;7.90;;;2.30;;
17618;SDS011;8928;51.678;6.074;2023-10-08T08:44:23;9.17;;;2.10;;
17618;SDS011;8928;51.678;6.074;2023-10-08T08:47:16;6.13;;;2.00;;
17618;SDS011;8928;51.678;6.074;2023-10-08T08:50:05;10.57;;;2.07;;
17618;SDS011;8928;51.678;6.074;2023-10-08T08:52:54;8.87;;;2.23;;
17618;SDS011;8928;51.678;6.074;2023-10-08T08:55:41;7.33;;;2.10;;
17618;SDS011;8928;51.678;6.074;2023-10-08T08:58:29;7.53;;;2.20;;
17618;SDS011;8928;51.678;6.074;2023-10-08T09:01:18;6.43;;;2.00;;
17618;SDS011;8928;51.678;6.074;2023-10-08T09:04:07;5.67;;;2.10;;
17618;SDS011;8928;51.678;6.074;2023-10-08T09:06:54;6.57;;;2.10;;
17618;SDS011;8928;51.678;6.074;2023-10-08T09:09:41;7.67;;;2.07;;
17618;SDS011;8928;51.678;6.074;2023-10-08T09:12:31;5.63;;;1.63;;
17618;SDS011;8928;51.678;6.074;2023-10-08T09:15:19;3.80;;;1.47;;
17618;SDS011;8928;51.678;6.074;2023-10-08T09:18:08;9.67;;;1.60;;
17618;SDS011;8928;51.678;6.074;2023-10-08T09:20:56;5.80;;;1.60;;
17618;SDS011;8928;51.678;6.074;2023-10-08T09:23:44;8.07;;;1.67;;
17618;SDS011;8928;51.678;6.074;2023-10-08T09:26:36;5.35;;;1.40;;
17618;SDS011;8928;51.678;6.074;2023-10-08T09:29:25;6.18;;;1.45;;
17618;SDS011;8928;51.678;6.074;2023-10-08T09:32:13;4.15;;;1.20;;
17618;SDS011;8928;51.678;6.074;2023-10-08T09:35:08;6.53;;;1.42;;
17618;SDS011;8928;51.678;6.074;2023-10-08T09:38:00;9.68;;;1.70;;
17618;SDS011;8928;51.678;6.074;2023-10-08T09:40:49;5.32;;;1.60;;
17618;SDS011;8928;51.678;6.074;2023-10-08T09:43:38;6.85;;;2.78;;
17618;SDS011;8928;51.678;6.074;2023-10-08T09:46:29;9.40;;;1.88;;
17618;SDS011;8928;51.678;6.074;2023-10-08T09:49:19;5.28;;;1.40;;
17618;SDS011;8928;51.678;6.074;2023-10-08T09:52:13;11.65;;;1.95;;
17618;SDS011;8928;51.678;6.074;2023-10-08T09:55:08;6.13;;;1.80;;
17618;SDS011;8928;51.678;6.074;2023-10-08T09:57:56;5.05;;;1.90;;
17618;SDS011;8928;51.678;6.074;2023-10-08T10:00:43;10.23;;;4.07;;
17618;SDS011;8928;51.678;6.074;2023-10-08T10:03:34;10.07;;;4.60;;
17618;SDS011;8928;51.678;6.074;2023-10-08T10:06:22;12.07;;;5.20;;
17618;SDS011;8928;51.678;6.074;2023-10-08T10:09:11;10.80;;;4.97;;
17618;SDS011;8928;51.678;6.074;2023-10-08T10:12:08;9.88;;;3.88;;
17618;SDS011;8928;51.678;6.074;2023-10-08T10:14:58;10.15;;;4.20;;
17618;SDS011;8928;51.678;6.074;2023-10-08T10:17:46;11.02;;;3.63;;
17618;SDS011;8928;51.678;6.074;2023-10-08T10:20:37;7.65;;;3.55;;
17618;SDS011;8928;51.678;6.074;2023-10-08T10:23:34;10.20;;;4.13;;
17618;SDS011;8928;51.678;6.074;2023-10-08T10:26:24;8.88;;;3.40;;
17618;SDS011;8928;51.678;6.074;2023-10-08T10:29:21;8.05;;;3.80;;
17618;SDS011;8928;51.678;6.074;2023-10-08T10:32:12;8.30;;;3.70;;
17618;SDS011;8928;51.678;6.074;2023-10-08T10:35:00;7.00;;;3.92;;
17618;SDS011;8928;51.678;6.074;2023-10-08T10:37:48;8.95;;;4.40;;
17618;SDS011;8928;51.678;6.074;2023-10-08T10:40:38;8.65;;;3.30;;
17618;SDS011;8928;51.678;6.074;2023-10-08T10:43:25;7.53;;;2.92;;
17618;SDS011;8928;51.678;6.074;2023-10-08T10:46:19;6.82;;;2.65;;
17618;SDS011;8928;51.678;6.074;2023-10-08T10:49:16;6.93;;;2.50;;
17618;SDS011;8928;51.678;6.074;2023-10-08T10:52:06;8.02;;;3.75;;
17618;SDS011;8928;51.678;6.074;2023-10-08T10:55:03;9.50;;;4.60;;
17618;SDS011;8928;51.678;6.074;2023-10-08T10:58:06;8.25;;;4.18;;
17618;SDS011;8928;51.678;6.074;2023-10-08T11:00:56;7.03;;;3.33;;
17618;SDS011;8928;51.678;6.074;2023-10-08T11:03:46;4.55;;;2.30;;
17618;SDS011;8928;51.678;6.074;2023-10-08T11:06:37;7.38;;;2.15;;
17618;SDS011;8928;51.678;6.074;2023-10-08T11:09:24;5.78;;;2.92;;
17618;SDS011;8928;51.678;6.074;2023-10-08T11:12:21;7.80;;;2.63;;
17618;SDS011;8928;51.678;6.074;2023-10-08T11:15:17;6.82;;;2.10;;
17618;SDS011;8928;51.678;6.074;2023-10-08T11:18:06;6.72;;;2.03;;
17618;SDS011;8928;51.678;6.074;2023-10-08T11:21:05;7.82;;;2.80;;
17618;SDS011;8928;51.678;6.074;2023-10-08T11:24:00;7.43;;;2.38;;
17618;SDS011;8928;51.678;6.074;2023-10-08T11:26:54;6.75;;;2.30;;
17618;SDS011;8928;51.678;6.074;2023-10-08T11:29:52;6.43;;;2.20;;
17618;SDS011;8928;51.678;6.074;2023-10-08T11:32:43;10.45;;;2.40;;
17618;SDS011;8928;51.678;6.074;2023-10-08T11:35:33;7.18;;;2.15;;
17618;SDS011;8928;51.678;6.074;2023-10-08T11:38:22;6.90;;;2.17;;
17618;SDS011;8928;51.678;6.074;2023-10-08T11:41:10;4.88;;;1.80;;
17618;SDS011;8928;51.678;6.074;2023-10-08T11:44:06;8.20;;;2.10;;
17618;SDS011;8928;51.678;6.074;2023-10-08T11:46:58;7.90;;;2.03;;
17618;SDS011;8928;51.678;6.074;2023-10-08T11:49:56;4.53;;;1.77;;
17618;SDS011;8928;51.678;6.074;2023-10-08T11:52:55;6.53;;;1.63;;
17618;SDS011;8928;51.678;6.074;2023-10-08T11:55:48;6.95;;;2.22;;
17618;SDS011;8928;51.678;6.074;2023-10-08T11:58:39;5.22;;;2.30;;
17618;SDS011;8928;51.678;6.074;2023-10-08T12:01:29;8.35;;;3.15;;
17618;SDS011;8928;51.678;6.074;2023-10-08T12:04:20;9.02;;;3.30;;
17618;SDS011;8928;51.678;6.074;2023-10-08T12:07:08;14.15;;;4.57;;
17618;SDS011;8928;51.678;6.074;2023-10-08T12:09:55;15.43;;;5.63;;
17618;SDS011;8928;51.678;6.074;2023-10-08T12:12:44;12.80;;;5.18;;
17618;SDS011;8928;51.678;6.074;2023-10-08T12:15:32;10.90;;;5.03;;
17618;SDS011;8928;51.678;6.074;2023-10-08T12:18:23;13.90;;;5.53;;
17618;SDS011;8928;51.678;6.074;2023-10-08T12:21:10;11.18;;;5.32;;
17618;SDS011;8928;51.678;6.074;2023-10-08T12:24:00;13.65;;;5.82;;
17618;SDS011;8928;51.678;6.074;2023-10-08T12:26:50;9.43;;;5.90;;
17618;SDS011;8928;51.678;6.074;2023-10-08T12:29:38;13.48;;;5.63;;
17618;SDS011;8928;51.678;6.074;2023-10-08T12:32:28;12.07;;;6.95;;
17618;SDS011;8928;51.678;6.074;2023-10-08T12:35:16;13.43;;;7.22;;
17618;SDS011;8928;51.678;6.074;2023-10-08T12:38:03;14.73;;;7.95;;
17618;SDS011;8928;51.678;6.074;2023-10-08T12:40:51;15.55;;;7.97;;
17618;SDS011;8928;51.678;6.074;2023-10-08T12:43:39;15.85;;;8.32;;
17618;SDS011;8928;51.678;6.074;2023-10-08T12:46:31;15.50;;;8.35;;
17618;SDS011;8928;51.678;6.074;2023-10-08T12:49:19;18.05;;;9.63;;
17618;SDS011;8928;51.678;6.074;2023-10-08T12:52:07;16.58;;;9.95;;
17618;SDS011;8928;51.678;6.074;2023-10-08T12:54:57;16.88;;;9.98;;
17618;SDS011;8928;51.678;6.074;2023-10-08T12:57:50;14.63;;;9.45;;
17618;SDS011;8928;51.678;6.074;2023-10-08T13:00:40;14.52;;;9.00;;
17618;SDS011;8928;51.678;6.074;2023-10-08T13:03:29;16.95;;;8.93;;
17618;SDS011;8928;51.678;6.074;2023-10-08T13:06:17;12.70;;;8.00;;
17618;SDS011;8928;51.678;6.074;2023-10-08T13:09:08;12.20;;;7.72;;
17618;SDS011;8928;51.678;6.074;2023-10-08T13:11:58;15.13;;;7.30;;
17618;SDS011;8928;51.678;6.074;2023-10-08T13:14:45;16.60;;;7.47;;
17618;SDS011;8928;51.678;6.074;2023-10-08T13:17:32;19.60;;;7.68;;
17618;SDS011;8928;51.678;6.074;2023-10-08T13:20:21;14.27;;;7.35;;
17618;SDS011;8928;51.678;6.074;2023-10-08T13:23:11;16.95;;;8.80;;
17618;SDS011;8928;51.678;6.074;2023-10-08T13:25:58;20.05;;;8.38;;
17618;SDS011;8928;51.678;6.074;2023-10-08T13:28:49;17.55;;;9.32;;
17618;SDS011;8928;51.678;6.074;2023-10-08T13:31:36;19.08;;;10.15;;
17618;SDS011;8928;51.678;6.074;2023-10-08T13:34:24;20.15;;;9.95;;
17618;SDS011;8928;51.678;6.074;2023-10-08T13:37:13;22.63;;;11.13;;
17618;SDS011;8928;51.678;6.074;2023-10-08T13:40:01;23.58;;;12.40;;
17618;SDS011;8928;51.678;6.074;2023-10-08T13:42:48;27.35;;;12.75;;
17618;SDS011;8928;51.678;6.074;2023-10-08T13:45:37;25.75;;;12.60;;
17618;SDS011;8928;51.678;6.074;2023-10-08T13:48:25;24.67;;;12.45;;
17618;SDS011;8928;51.678;6.074;2023-10-08T13:51:12;26.80;;;12.85;;
17618;SDS011;8928;51.678;6.074;2023-10-08T13:54:01;30.20;;;13.45;;
17618;SDS011;8928;51.678;6.074;2023-10-08T13:56:52;28.10;;;13.05;;
17618;SDS011;8928;51.678;6.074;2023-10-08T13:59:39;27.65;;;13.15;;
17618;SDS011;8928;51.678;6.074;2023-10-08T14:02:28;30.25;;;13.48;;
17618;SDS011;8928;51.678;6.074;2023-10-08T14:05:15;31.88;;;13.85;;
17618;SDS011;8928;51.678;6.074;2023-10-08T14:08:03;27.38;;;13.80;;
17618;SDS011;8928;51.678;6.074;2023-10-08T14:10:58;30.60;;;14.10;;
17618;SDS011;8928;51.678;6.074;2023-10-08T14:13:48;26.25;;;12.48;;
17618;SDS011;8928;51.678;6.074;2023-10-08T14:16:36;23.88;;;11.73;;
17618;SDS011;8928;51.678;6.074;2023-10-08T14:19:27;28.85;;;12.50;;
17618;SDS011;8928;51.678;6.074;2023-10-08T14:22:21;25.90;;;11.55;;
17618;SDS011;8928;51.678;6.074;2023-10-08T14:25:08;27.48;;;12.10;;
17618;SDS011;8928;51.678;6.074;2023-10-08T14:27:58;25.73;;;11.82;;
17618;SDS011;8928;51.678;6.074;2023-10-08T14:30:50;25.65;;;11.07;;
17618;SDS011;8928;51.678;6.074;2023-10-08T14:33:41;29.10;;;11.95;;
17618;SDS011;8928;51.678;6.074;2023-10-08T14:36:40;25.10;;;11.23;;
17618;SDS011;8928;51.678;6.074;2023-10-08T14:39:45;26.25;;;11.73;;
17618;SDS011;8928;51.678;6.074;2023-10-08T14:42:50;26.23;;;11.82;;
17618;SDS011;8928;51.678;6.074;2023-10-08T14:45:42;25.27;;;11.48;;
17618;SDS011;8928;51.678;6.074;2023-10-08T14:48:32;27.13;;;12.48;;
17618;SDS011;8928;51.678;6.074;2023-10-08T14:51:20;23.77;;;11.40;;
17618;SDS011;8928;51.678;6.074;2023-10-08T14:54:09;28.73;;;12.38;;
17618;SDS011;8928;51.678;6.074;2023-10-08T14:56:57;26.95;;;11.95;;
17618;SDS011;8928;51.678;6.074;2023-10-08T14:59:44;31.83;;;12.10;;
17618;SDS011;8928;51.678;6.074;2023-10-08T15:02:32;26.17;;;12.10;;
17618;SDS011;8928;51.678;6.074;2023-10-08T15:05:20;26.35;;;11.75;;
17618;SDS011;8928;51.678;6.074;2023-10-08T15:08:08;26.00;;;11.52;;
17618;SDS011;8928;51.678;6.074;2023-10-08T15:10:56;28.60;;;11.35;;
17618;SDS011;8928;51.678;6.074;2023-10-08T15:13:43;29.73;;;12.15;;
17618;SDS011;8928;51.678;6.074;2023-10-08T15:16:31;33.33;;;12.48;;
17618;SDS011;8928;51.678;6.074;2023-10-08T15:19:20;30.35;;;12.25;;
17618;SDS011;8928;51.678;6.074;2023-10-08T15:22:08;32.60;;;13.02;;
17618;SDS011;8928;51.678;6.074;2023-10-08T15:24:55;29.20;;;13.07;;
17618;SDS011;8928;51.678;6.074;2023-10-08T15:27:42;30.92;;;12.40;;
17618;SDS011;8928;51.678;6.074;2023-10-08T15:30:30;32.20;;;13.93;;
17618;SDS011;8928;51.678;6.074;2023-10-08T15:33:18;29.13;;;12.35;;
17618;SDS011;8928;51.678;6.074;2023-10-08T15:36:06;30.80;;;13.07;;
17618;SDS011;8928;51.678;6.074;2023-10-08T15:38:53;31.75;;;12.82;;
17618;SDS011;8928;51.678;6.074;2023-10-08T15:41:41;29.70;;;12.35;;
17618;SDS011;8928;51.678;6.074;2023-10-08T15:44:28;23.58;;;11.07;;
17618;SDS011;8928;51.678;6.074;2023-10-08T15:47:15;25.42;;;10.55;;
17618;SDS011;8928;51.678;6.074;2023-10-08T15:50:03;23.80;;;10.35;;
17618;SDS011;8928;51.678;6.074;2023-10-08T15:52:51;27.45;;;10.20;;
17618;SDS011;8928;51.678;6.074;2023-10-08T15:55:39;20.08;;;9.93;;
17618;SDS011;8928;51.678;6.074;2023-10-08T15:58:27;23.92;;;8.85;;
17618;SDS011;8928;51.678;6.074;2023-10-08T16:01:14;22.92;;;9.48;;
17618;SDS011;8928;51.678;6.074;2023-10-08T16:04:01;21.65;;;8.98;;
17618;SDS011;8928;51.678;6.074;2023-10-08T16:06:50;19.15;;;8.52;;
17618;SDS011;8928;51.678;6.074;2023-10-08T16:09:38;18.80;;;8.50;;
17618;SDS011;8928;51.678;6.074;2023-10-08T16:12:26;18.77;;;8.20;;
17618;SDS011;8928;51.678;6.074;2023-10-08T16:15:13;21.58;;;8.98;;
17618;SDS011;8928;51.678;6.074;2023-10-08T16:18:00;21.42;;;9.10;;
17618;SDS011;8928;51.678;6.074;2023-10-08T16:20:48;20.67;;;8.57;;
17618;SDS011;8928;51.678;6.074;2023-10-08T16:23:36;21.15;;;8.55;;
17618;SDS011;8928;51.678;6.074;2023-10-08T16:26:24;22.63;;;9.40;;
17618;SDS011;8928;51.678;6.074;2023-10-08T16:29:12;24.52;;;9.70;;
17618;SDS011;8928;51.678;6.074;2023-10-08T16:31:59;24.48;;;9.43;;
17618;SDS011;8928;51.678;6.074;2023-10-08T16:34:46;18.55;;;8.20;;
17618;SDS011;8928;51.678;6.074;2023-10-08T16:37:33;17.02;;;7.97;;
17618;SDS011;8928;51.678;6.074;2023-10-08T16:40:20;20.42;;;8.60;;
17618;SDS011;8928;51.678;6.074;2023-10-08T16:43:08;21.05;;;8.55;;
17618;SDS011;8928;51.678;6.074;2023-10-08T16:46:00;21.10;;;9.00;;
17618;SDS011;8928;51.678;6.074;2023-10-08T16:48:50;21.73;;;8.97;;
17618;SDS011;8928;51.678;6.074;2023-10-08T16:51:38;20.23;;;9.70;;
17618;SDS011;8928;51.678;6.074;2023-10-08T16:54:25;25.03;;;9.27;;
17618;SDS011;8928;51.678;6.074;2023-10-08T16:57:12;25.60;;;8.73;;
17618;SDS011;8928;51.678;6.074;2023-10-08T17:00:00;19.30;;;8.07;;
17618;SDS011;8928;51.678;6.074;2023-10-08T17:02:56;16.87;;;7.47;;
17618;SDS011;8928;51.678;6.074;2023-10-08T17:05:43;15.37;;;6.93;;
17618;SDS011;8928;51.678;6.074;2023-10-08T17:08:30;19.33;;;7.23;;